createdAt,value
2022-10-31T07:56:35.964Z,12.60
2022-10-31T07:59:05.722Z,12.00
2022-10-31T08:01:34.446Z,11.00
2022-10-31T08:04:33.602Z,13.60
2022-10-31T08:10:16.075Z,18.60
2022-10-31T08:12:54.973Z,18.40
2022-10-31T08:15:38.263Z,20.70
2022-10-31T08:18:08.405Z,20.00
2022-10-31T08:20:40.336Z,21.60
2022-10-31T08:23:11.225Z,13.50
2022-10-31T08:25:41.042Z,15.10
2022-10-31T08:28:12.612Z,16.80
2022-10-31T08:30:42.204Z,16.80
2022-10-31T08:33:29.387Z,14.90
2022-10-31T08:36:16.797Z,13.80
2022-10-31T08:39:14.964Z,18.40
2022-10-31T08:41:43.627Z,17.20
2022-10-31T08:44:14.318Z,27.60
2022-10-31T08:46:43.290Z,19.20
2022-10-31T08:49:12.814Z,16.20
2022-10-31T08:51:51.327Z,20.30
2022-10-31T08:54:23.473Z,20.40
2022-10-31T08:57:17.751Z,30.50
2022-10-31T08:59:47.867Z,26.00
2022-10-31T09:02:16.512Z,27.50
2022-10-31T09:04:45.408Z,23.30
2022-10-31T09:07:21.636Z,22.90
2022-10-31T09:09:50.404Z,28.40
2022-10-31T09:12:20.236Z,24.90
2022-10-31T09:15:10.144Z,26.20
2022-10-31T09:17:49.022Z,30.80
2022-10-31T09:20:24.058Z,33.70
2022-10-31T09:23:22.055Z,27.30
2022-10-31T09:25:52.786Z,27.70
2022-10-31T09:28:42.250Z,28.10
2022-10-31T09:31:14.721Z,30.90
2022-10-31T09:34:21.669Z,25.40
2022-10-31T09:37:01.983Z,21.10
2022-10-31T09:39:31.061Z,21.10
2022-10-31T09:42:17.922Z,19.00
2022-10-31T09:45:25.514Z,23.80
2022-10-31T09:48:17.563Z,27.40
2022-10-31T09:51:18.560Z,32.40
2022-10-31T09:54:32.716Z,32.50
2022-10-31T09:57:02.153Z,26.00
2022-10-31T09:59:40.204Z,27.10
2022-10-31T10:02:16.755Z,23.90
2022-10-31T10:04:58.381Z,29.30
2022-10-31T10:07:42.434Z,26.10
2022-10-31T10:10:56.207Z,35.70
2022-10-31T10:13:48.225Z,25.60
2022-10-31T10:16:34.825Z,28.40
2022-10-31T10:19:33.327Z,28.90
2022-10-31T10:22:29.708Z,33.30
2022-10-31T10:25:24.404Z,37.20
2022-10-31T10:27:58.951Z,32.00
2022-10-31T10:30:35.701Z,44.50
2022-10-31T10:33:13.744Z,53.20
2022-10-31T10:36:06.863Z,43.20
2022-10-31T10:39:00.392Z,43.70
2022-10-31T10:41:34.410Z,51.10
2022-10-31T10:44:10.056Z,68.30
2022-10-31T10:47:08.319Z,44.40
2022-10-31T10:49:54.099Z,52.00
2022-10-31T10:55:31.994Z,34.90
2022-10-31T10:58:06.022Z,40.10
2022-10-31T11:00:42.577Z,31.10
2022-10-31T11:03:12.330Z,31.20
2022-10-31T11:05:49.907Z,31.20
2022-10-31T11:08:27.569Z,28.60
2022-10-31T11:11:09.972Z,30.10
2022-10-31T11:13:41.949Z,39.50
2022-10-31T11:16:15.274Z,39.90
2022-10-31T11:18:48.316Z,40.30
2022-10-31T11:21:28.843Z,41.20
2022-10-31T11:24:12.862Z,46.60
2022-10-31T11:26:44.069Z,43.20
2022-10-31T11:29:26.400Z,46.20
2022-10-31T11:31:58.760Z,53.20
2022-10-31T11:34:30.362Z,51.60
2022-10-31T11:37:06.073Z,46.90
2022-10-31T11:39:43.717Z,42.30
2022-10-31T11:42:13.388Z,44.90
2022-10-31T11:44:45.040Z,52.50
2022-10-31T11:47:19.129Z,50.30
2022-10-31T11:49:50.801Z,53.50
2022-10-31T11:52:23.720Z,55.60
2022-10-31T11:54:52.153Z,51.00
2022-10-31T11:57:43.528Z,53.00
2022-10-31T12:00:39.854Z,68.00
2022-10-31T12:03:23.873Z,53.40
2022-10-31T12:06:07.502Z,55.10
2022-10-31T12:08:38.376Z,53.70
2022-10-31T12:11:21.126Z,50.80
2022-10-31T12:13:52.523Z,45.50
2022-10-31T12:16:30.791Z,50.30
2022-10-31T12:19:19.971Z,48.80
2022-10-31T12:22:09.950Z,60.40
2022-10-31T12:25:03.984Z,55.30
2022-10-31T12:28:01.970Z,57.90
2022-10-31T12:31:07.475Z,57.20
2022-10-31T12:33:55.143Z,54.70
2022-10-31T12:36:32.771Z,60.60
2022-10-31T12:39:04.491Z,57.20
2022-10-31T12:41:49.168Z,57.10
2022-10-31T12:44:35.754Z,57.90
2022-10-31T12:47:25.567Z,53.40
2022-10-31T12:50:19.286Z,63.40
2022-10-31T12:52:50.528Z,48.60
2022-10-31T12:55:40.774Z,56.10
2022-10-31T12:58:16.584Z,53.60
2022-10-31T13:00:48.434Z,52.60
2022-10-31T13:03:20.692Z,57.60
2022-10-31T13:05:55.320Z,55.10
2022-10-31T13:08:30.178Z,55.70
2022-10-31T13:11:20.073Z,59.00
2022-10-31T13:13:58.102Z,59.00
2022-10-31T13:16:33.293Z,60.50
2022-10-31T13:19:20.690Z,60.20
2022-10-31T13:22:13.981Z,60.10
2022-10-31T13:25:13.552Z,55.40
2022-10-31T13:28:00.868Z,59.40
2022-10-31T13:30:34.982Z,62.40
2022-10-31T13:33:22.428Z,60.10
2022-10-31T13:35:56.272Z,61.40
2022-10-31T13:38:50.709Z,56.60
2022-10-31T13:41:43.607Z,63.90
2022-10-31T13:44:12.331Z,65.30
2022-10-31T13:49:31.900Z,63.60
2022-10-31T13:52:27.997Z,57.90
2022-10-31T13:54:59.247Z,57.10
2022-10-31T13:57:43.168Z,59.60
2022-10-31T14:02:49.556Z,67.30
2022-10-31T14:05:37.723Z,61.50
2022-10-31T14:08:17.351Z,66.40
2022-10-31T14:10:56.133Z,67.60
2022-10-31T14:13:44.786Z,69.60
2022-10-31T14:16:24.891Z,69.20
2022-10-31T14:19:08.514Z,58.40
2022-10-31T14:21:44.115Z,48.10
2022-10-31T14:24:26.115Z,49.30
2022-10-31T14:26:56.748Z,49.10
2022-10-31T14:29:28.937Z,49.70
2022-10-31T14:32:14.352Z,57.30
2022-10-31T14:34:52.328Z,51.00
2022-10-31T14:37:28.215Z,51.70
2022-10-31T14:40:12.895Z,54.70
2022-10-31T14:43:17.014Z,61.80
2022-10-31T14:46:17.782Z,70.00
2022-10-31T14:49:06.150Z,65.00
2022-10-31T14:51:45.979Z,72.00
2022-10-31T14:54:21.708Z,89.10
2022-10-31T14:56:56.366Z,68.40
2022-10-31T14:59:32.953Z,77.30
2022-10-31T15:02:14.850Z,84.80
2022-10-31T15:04:48.399Z,90.90
2022-10-31T15:07:25.385Z,74.40
2022-10-31T15:10:03.353Z,77.30
2022-10-31T15:12:39.944Z,74.40
2022-10-31T15:15:21.495Z,84.90
2022-10-31T15:17:55.764Z,77.40
2022-10-31T15:20:28.508Z,80.60
2022-10-31T15:22:59.658Z,71.90
2022-10-31T15:25:36.571Z,66.70
2022-10-31T15:28:23.253Z,59.90
2022-10-31T15:30:57.232Z,75.50
2022-10-31T15:33:33.836Z,64.20
2022-10-31T15:36:20.512Z,63.10
2022-10-31T15:38:52.753Z,57.20
2022-10-31T15:41:24.616Z,63.90
2022-10-31T15:43:53.707Z,59.70
2022-10-31T15:46:23.860Z,62.70
2022-10-31T15:48:52.555Z,61.60
2022-10-31T15:51:34.453Z,80.10
2022-10-31T15:54:03.853Z,102.60
2022-10-31T15:56:34.070Z,99.60
2022-10-31T15:59:04.041Z,99.90
2022-10-31T16:01:35.496Z,104.20
2022-10-31T16:04:07.589Z,96.90
2022-10-31T16:06:36.111Z,94.00
2022-10-31T16:09:20.816Z,68.50
2022-10-31T16:11:50.746Z,71.30
2022-10-31T16:14:25.886Z,64.30
2022-10-31T16:16:58.514Z,78.00
2022-10-31T16:19:36.537Z,88.00
2022-10-31T16:22:13.783Z,97.90
2022-10-31T16:25:00.656Z,78.40
2022-10-31T16:27:36.367Z,77.50
2022-10-31T16:30:42.791Z,67.30
2022-10-31T16:33:37.564Z,88.60
2022-10-31T16:36:35.732Z,93.20
2022-10-31T16:39:05.946Z,105.20
2022-10-31T16:41:42.094Z,119.20
2022-10-31T16:44:20.492Z,115.20
2022-10-31T16:46:49.928Z,138.10
2022-10-31T16:49:20.279Z,140.20
2022-10-31T16:51:48.611Z,107.50
2022-10-31T16:54:17.671Z,108.10
2022-10-31T16:56:48.977Z,74.50
2022-10-31T16:59:18.024Z,87.00
2022-10-31T17:01:50.707Z,74.50
2022-10-31T17:04:19.755Z,80.00
2022-10-31T17:06:48.779Z,94.10
2022-10-31T17:09:18.031Z,101.70
2022-10-31T17:11:52.102Z,99.40
2022-10-31T17:14:22.598Z,103.10
2022-10-31T17:16:51.525Z,92.60
2022-10-31T17:19:20.827Z,74.50
2022-10-31T17:21:50.511Z,81.20
2022-10-31T17:24:19.544Z,110.90
2022-10-31T17:26:48.618Z,121.40
2022-10-31T17:29:18.489Z,87.60
2022-10-31T17:31:49.828Z,94.80
2022-10-31T17:34:19.799Z,97.80
2022-10-31T17:36:52.768Z,118.10
2022-10-31T17:39:22.382Z,82.50
2022-10-31T17:41:52.462Z,78.90
2022-10-31T17:44:21.120Z,84.50
2022-10-31T17:46:49.616Z,60.00
2022-10-31T17:49:17.723Z,71.10
2022-10-31T17:51:48.285Z,68.90
2022-10-31T17:54:19.066Z,75.00
2022-10-31T17:56:47.642Z,70.80
2022-10-31T17:59:16.597Z,69.60
2022-10-31T18:01:45.120Z,92.90
2022-10-31T18:04:14.327Z,97.10
2022-10-31T18:06:42.762Z,75.00
2022-10-31T18:09:12.305Z,108.80
2022-10-31T18:11:41.320Z,134.10
2022-10-31T18:14:10.884Z,122.20
2022-10-31T18:16:39.026Z,81.80
2022-10-31T18:19:08.128Z,64.50
2022-10-31T18:21:37.059Z,63.60
2022-10-31T18:24:06.597Z,55.90
2022-10-31T18:26:35.553Z,91.50
2022-10-31T18:29:04.331Z,101.60
2022-10-31T18:31:32.474Z,87.10
2022-10-31T18:34:01.144Z,73.30
2022-10-31T18:36:29.658Z,57.90
2022-10-31T18:38:58.435Z,59.70
2022-10-31T18:41:26.972Z,80.70
2022-10-31T18:44:00.094Z,62.80
2022-10-31T18:46:29.833Z,82.70
2022-10-31T18:48:57.955Z,85.50
2022-10-31T18:51:27.191Z,62.60
2022-10-31T18:53:58.158Z,80.70
2022-10-31T18:56:27.768Z,58.00
2022-10-31T18:58:56.596Z,56.40
2022-10-31T19:01:25.121Z,105.30
2022-10-31T19:03:58.784Z,79.60
2022-10-31T19:06:31.710Z,50.50
2022-10-31T19:09:04.817Z,41.20
2022-10-31T19:11:40.220Z,119.10
2022-10-31T19:14:13.052Z,54.30
2022-10-31T19:16:46.176Z,49.30
2022-10-31T19:19:27.172Z,71.30
2022-10-31T19:21:56.371Z,62.20
2022-10-31T19:24:24.895Z,74.10
2022-10-31T19:26:53.556Z,77.70
2022-10-31T19:29:22.616Z,67.80
2022-10-31T19:31:51.648Z,54.90
2022-10-31T19:34:20.090Z,56.00
2022-10-31T19:36:48.448Z,53.80
2022-10-31T19:39:17.262Z,44.90
2022-10-31T19:41:45.649Z,49.90
2022-10-31T19:44:16.009Z,45.50
2022-10-31T19:46:53.530Z,51.50
2022-10-31T19:49:22.223Z,48.70
2022-10-31T19:51:51.145Z,49.50
2022-10-31T19:54:19.551Z,53.60
2022-10-31T19:56:47.983Z,65.00
2022-10-31T19:59:16.381Z,47.70
2022-10-31T20:01:44.814Z,41.60
2022-10-31T20:04:13.126Z,59.20
2022-10-31T20:06:42.212Z,39.40
2022-10-31T20:09:14.107Z,37.50
2022-10-31T20:11:45.004Z,39.60
2022-10-31T20:14:16.142Z,35.10
2022-10-31T20:16:46.302Z,41.40
2022-10-31T20:19:18.206Z,37.60
2022-10-31T20:21:47.065Z,39.20
2022-10-31T20:24:15.637Z,37.90
2022-10-31T20:26:44.682Z,38.10
2022-10-31T20:29:16.314Z,35.80
2022-10-31T20:31:46.211Z,32.00
2022-10-31T20:34:15.061Z,36.70
2022-10-31T20:36:43.978Z,40.20
2022-10-31T20:39:12.266Z,41.20
2022-10-31T20:41:40.565Z,45.20
2022-10-31T20:44:09.105Z,45.40
2022-10-31T20:46:37.655Z,46.70
2022-10-31T20:49:05.981Z,35.60
2022-10-31T20:51:34.940Z,26.30
2022-10-31T20:54:03.513Z,30.90
2022-10-31T20:56:32.541Z,33.90
2022-10-31T20:59:01.117Z,31.20
2022-10-31T21:01:31.814Z,41.50
2022-10-31T21:04:00.268Z,54.30
2022-10-31T21:06:29.761Z,46.80
2022-10-31T21:08:58.908Z,41.30
2022-10-31T21:11:28.514Z,39.50
2022-10-31T21:13:57.388Z,38.60
2022-10-31T21:16:36.583Z,28.80
2022-10-31T21:19:06.046Z,22.80
2022-10-31T21:21:36.708Z,55.00
2022-10-31T21:24:13.461Z,65.40
2022-10-31T21:26:49.546Z,65.90
2022-10-31T21:29:19.684Z,54.60
2022-10-31T21:31:48.753Z,27.40
2022-10-31T21:34:18.561Z,24.30
2022-10-31T21:36:47.409Z,26.10
2022-10-31T21:39:16.174Z,32.80
2022-10-31T21:41:44.761Z,27.50
2022-10-31T21:44:13.581Z,21.20
2022-10-31T21:46:42.078Z,20.50
2022-10-31T21:49:12.105Z,19.90
2022-10-31T21:51:43.049Z,18.30
2022-10-31T21:54:30.706Z,19.00
2022-10-31T21:57:01.513Z,21.60
2022-10-31T21:59:30.964Z,19.90
2022-10-31T22:02:01.066Z,24.80
2022-10-31T22:04:29.649Z,20.70
2022-10-31T22:06:58.284Z,24.60
2022-10-31T22:09:27.051Z,25.20
2022-10-31T22:11:55.867Z,28.20
2022-10-31T22:14:24.567Z,21.80
2022-10-31T22:16:53.609Z,23.20
2022-10-31T22:19:22.516Z,20.00
2022-10-31T22:21:51.591Z,23.70
2022-10-31T22:24:20.262Z,26.10
2022-10-31T22:26:49.430Z,18.70
2022-10-31T22:29:20.595Z,24.50
2022-10-31T22:31:53.480Z,20.20
2022-10-31T22:34:26.791Z,20.50
2022-10-31T22:36:56.948Z,21.40
2022-10-31T22:39:25.647Z,25.40
2022-10-31T22:41:54.784Z,27.30
2022-10-31T22:44:23.883Z,22.20
2022-10-31T22:46:52.840Z,22.10
2022-10-31T22:49:21.160Z,22.40
2022-10-31T22:51:52.266Z,21.50
2022-10-31T22:54:21.322Z,21.10
2022-10-31T22:56:50.577Z,20.90
2022-10-31T22:59:18.995Z,17.70
2022-10-31T23:01:48.044Z,16.60
2022-10-31T23:04:17.410Z,20.30
2022-10-31T23:06:46.942Z,19.60
2022-10-31T23:09:17.190Z,21.90
2022-10-31T23:11:46.380Z,23.70
2022-10-31T23:14:21.303Z,23.60
2022-10-31T23:16:53.747Z,20.30
2022-10-31T23:19:26.813Z,19.00
2022-10-31T23:22:02.547Z,18.30
2022-10-31T23:24:41.326Z,20.50
2022-10-31T23:27:13.677Z,18.50
2022-10-31T23:29:44.085Z,22.20
2022-10-31T23:32:18.395Z,21.00
2022-10-31T23:34:48.846Z,21.60
2022-10-31T23:37:18.624Z,17.70
2022-10-31T23:39:47.355Z,18.40
2022-10-31T23:42:16.793Z,18.10
2022-10-31T23:44:45.637Z,18.60
2022-10-31T23:47:14.618Z,17.90
2022-10-31T23:49:43.777Z,19.90
2022-10-31T23:52:19.986Z,21.80
2022-10-31T23:54:51.576Z,17.90
2022-10-31T23:57:20.125Z,16.50
2022-10-31T23:59:48.898Z,21.80
